Terminal Aerodrome Forecast
Issued by NWS Charleston, WV

Current Version | Previous Version | Graphics & Text | Print | Product List | Glossary On
Versions: 1 2 3 4 5 6 7 8 9 10 11 12 13 14 15 16 17 18 19 20 21 22 23 24 25 26
312
FTUS41 KRLX 211500 AAA
TAFCRW
TAF AMD
KCRW 211500Z 2115/2212 24005KT 6SM -RA SCT016 BKN029 OVC060
     FM211700 30008KT P6SM BKN025
     FM212000 28009KT P6SM BKN050
     FM220600 VRB03KT P6SM FEW250
     FM220800 VRB03KT 5SM BR FEW090=

USA.gov is the U.S. government's official web portal to all federal, state and local government web resources and services.